KMFD/MFD METAR and TAF weather

Enter ICAO airport designator
Station Type Date Time Source
KMFD METAR 2021/03/08 01:52 UTC NOAA

KMFD 080152Z 00000KT 10SM CLR M02/M08 A3042 RMK AO2 SLP315 T10221078


Station Type Date Time Source
KMFD Decoded METAR 2021/03/08 01:52 UTC NOAA

LAHM MUNICIPAL AIRPORT, OH, United States (KMFD) 40-49N 082-31W 395M
Mar 07, 2021 - 08:52 PM EST / 2021.03.08 0152 UTC
Wind: Calm:0
Visibility: 10 mile(s):0
Sky conditions: clear
Temperature: 28.0 F (-2.2 C)
Dew Point: 18.0 F (-7.8 C)
Relative Humidity: 65%
Pressure (altimeter): 30.42 in. Hg (1030 hPa)
ob: KMFD 080152Z 00000KT 10SM CLR M02/M08 A3042 RMK AO2 SLP315 T10221078
cycle: 2

Station Type Date Time Source
KMFD TAF 2021/03/07 18:48 UTC NOAA

TAF KMFD 071745Z 0718/0818 32008KT P6SM FEW035
FM072300 VRB03KT P6SM SKC
FM081300 20010KT P6SM SCT200
FM081600 21014G25KT P6SM FEW045 SCT200

Example: see airport list